createdAt,value
2022-11-28T00:00:52.883Z,5.80
2022-11-28T00:03:54.744Z,5.20
2022-11-28T00:06:56.726Z,4.82
2022-11-28T00:09:58.619Z,5.60
2022-11-28T00:13:00.353Z,4.57
2022-11-28T00:16:04.433Z,5.38
2022-11-28T00:19:07.525Z,5.38
2022-11-28T00:22:09.210Z,5.28
2022-11-28T00:25:10.760Z,5.53
2022-11-28T00:28:12.425Z,5.22
2022-11-28T00:31:16.251Z,5.40
2022-11-28T00:34:17.897Z,5.68
2022-11-28T00:37:19.538Z,5.93
2022-11-28T00:40:21.292Z,6.05
2022-11-28T00:43:23.010Z,5.75
2022-11-28T00:46:25.146Z,5.68
2022-11-28T00:49:27.013Z,6.32
2022-11-28T00:52:28.779Z,5.30
2022-11-28T00:55:30.573Z,5.55
2022-11-28T00:58:33.786Z,5.70
2022-11-28T01:01:38.995Z,5.55
2022-11-28T01:04:41.030Z,5.10
2022-11-28T01:07:43.008Z,6.15
2022-11-28T01:10:46.194Z,5.53
2022-11-28T01:13:48.407Z,6.18
2022-11-28T01:16:50.343Z,5.55
2022-11-28T01:19:52.157Z,5.90
2022-11-28T01:22:53.727Z,6.28
2022-11-28T01:25:55.783Z,5.72
2022-11-28T01:28:58.830Z,6.03
2022-11-28T01:32:00.537Z,5.70
2022-11-28T01:35:02.251Z,5.28
2022-11-28T01:38:03.875Z,6.25
2022-11-28T01:41:06.334Z,6.50
2022-11-28T01:44:27.878Z,6.00
2022-11-28T01:47:31.175Z,6.13
2022-11-28T01:50:33.803Z,7.25
2022-11-28T01:53:41.265Z,5.32
2022-11-28T01:56:51.146Z,5.90
2022-11-28T02:00:09.729Z,5.97
2022-11-28T02:03:20.544Z,6.43
2022-11-28T02:06:24.228Z,6.05
2022-11-28T02:09:26.379Z,6.97
2022-11-28T02:12:30.735Z,5.70
2022-11-28T02:16:10.251Z,5.57
2022-11-28T02:19:49.444Z,6.35
2022-11-28T02:23:21.758Z,6.63
2022-11-28T02:26:54.747Z,5.90
2022-11-28T02:30:06.671Z,4.97
2022-11-28T02:33:16.546Z,6.10
2022-11-28T02:36:28.737Z,6.32
2022-11-28T02:39:43.768Z,6.38
2022-11-28T02:42:54.726Z,6.32
2022-11-28T02:46:13.811Z,6.53
2022-11-28T02:49:23.998Z,6.43
2022-11-28T02:52:49.602Z,7.07
2022-11-28T02:55:52.817Z,6.20
2022-11-28T02:58:55.007Z,7.38
2022-11-28T03:01:57.056Z,5.90
2022-11-28T03:05:05.168Z,7.20
2022-11-28T03:08:47.843Z,5.80
2022-11-28T03:12:07.916Z,6.43
2022-11-28T03:15:11.913Z,6.25
2022-11-28T03:18:26.252Z,6.40
2022-11-28T03:21:37.114Z,6.47
2022-11-28T03:24:55.000Z,6.82
2022-11-28T03:27:59.361Z,6.82
2022-11-28T03:31:05.410Z,6.25
2022-11-28T03:34:12.302Z,6.38
2022-11-28T03:37:24.107Z,6.15
2022-11-28T03:40:30.923Z,6.95
2022-11-28T03:43:38.762Z,7.25
2022-11-28T03:46:46.359Z,6.57
2022-11-28T03:49:53.115Z,6.40
2022-11-28T03:53:05.939Z,6.68
2022-11-28T03:56:14.252Z,5.53
2022-11-28T03:59:42.233Z,5.55
2022-11-28T04:02:44.055Z,5.55
2022-11-28T04:05:47.833Z,5.97
2022-11-28T04:08:58.585Z,6.50
2022-11-28T04:12:07.850Z,6.40
2022-11-28T04:15:15.752Z,5.80
2022-11-28T04:18:38.185Z,6.35
2022-11-28T04:21:59.242Z,7.75
2022-11-28T04:25:09.649Z,6.25
2022-11-28T04:28:15.513Z,6.65
2022-11-28T04:31:19.039Z,6.55
2022-11-28T04:34:22.344Z,6.28
2022-11-28T04:37:28.025Z,6.45
2022-11-28T04:40:33.178Z,6.57
2022-11-28T04:43:37.928Z,6.05
2022-11-28T04:46:47.494Z,6.22
2022-11-28T04:49:49.542Z,6.20
2022-11-28T04:52:56.761Z,5.88
2022-11-28T04:56:05.236Z,6.65
2022-11-28T04:59:08.263Z,6.15
2022-11-28T05:02:13.571Z,7.25
2022-11-28T05:05:21.921Z,6.25
2022-11-28T05:08:23.858Z,6.78
2022-11-28T05:11:26.298Z,7.07
2022-11-28T05:14:28.214Z,6.97
2022-11-28T05:17:29.792Z,6.13
2022-11-28T05:20:35.070Z,8.88
2022-11-28T05:23:38.640Z,8.80
2022-11-28T05:26:40.503Z,7.13
2022-11-28T05:29:49.392Z,7.65
2022-11-28T05:32:53.630Z,6.60
2022-11-28T05:35:55.874Z,8.05
2022-11-28T05:38:57.510Z,6.95
2022-11-28T05:41:59.491Z,6.43
2022-11-28T05:45:01.518Z,6.78
2022-11-28T05:48:03.259Z,7.63
2022-11-28T05:51:05.865Z,6.75
2022-11-28T05:54:10.377Z,6.75
2022-11-28T05:57:12.071Z,7.32
2022-11-28T06:00:17.462Z,7.57
2022-11-28T06:03:19.049Z,7.72
2022-11-28T06:06:22.059Z,7.32
2022-11-28T06:09:25.982Z,7.90
2022-11-28T06:12:28.047Z,7.30
2022-11-28T06:15:38.346Z,7.65
2022-11-28T06:18:41.176Z,7.00
2022-11-28T06:21:42.791Z,7.07
2022-11-28T06:24:44.397Z,6.95
2022-11-28T06:27:46.134Z,8.40
2022-11-28T06:30:47.682Z,7.68
2022-11-28T06:33:49.796Z,8.57
2022-11-28T06:36:51.458Z,7.35
2022-11-28T06:39:53.154Z,7.40
2022-11-28T06:42:54.882Z,9.27
2022-11-28T06:45:56.883Z,9.23
2022-11-28T06:48:58.827Z,9.38
2022-11-28T06:52:00.498Z,8.43
2022-11-28T06:55:02.342Z,7.68
2022-11-28T06:58:04.164Z,7.85
2022-11-28T07:01:18.974Z,9.18
2022-11-28T07:04:20.744Z,7.90
2022-11-28T07:07:22.481Z,8.60
2022-11-28T07:10:27.945Z,8.38
2022-11-28T07:13:29.531Z,8.68
2022-11-28T07:16:33.304Z,7.68
2022-11-28T07:19:35.228Z,7.47
2022-11-28T07:22:36.840Z,9.63
2022-11-28T07:25:38.670Z,8.32
2022-11-28T07:28:40.967Z,7.60
2022-11-28T07:31:42.918Z,8.63
2022-11-28T07:34:49.881Z,8.85
2022-11-28T07:37:51.915Z,8.45
2022-11-28T07:40:53.822Z,8.27
2022-11-28T07:44:00.461Z,8.35
2022-11-28T07:47:02.128Z,8.32
2022-11-28T07:50:04.338Z,8.43
2022-11-28T07:53:07.406Z,10.00
2022-11-28T07:56:16.156Z,8.70
2022-11-28T07:59:18.259Z,17.98
2022-11-28T08:02:20.146Z,7.82
2022-11-28T08:05:21.998Z,8.43
2022-11-28T08:08:23.945Z,9.45
2022-11-28T08:11:28.308Z,10.05
2022-11-28T08:14:30.172Z,8.30
2022-11-28T08:17:34.363Z,9.38
2022-11-28T08:20:36.013Z,9.93
2022-11-28T08:23:39.440Z,10.60
2022-11-28T08:29:43.262Z,8.90
2022-11-28T08:32:45.111Z,9.57
2022-11-28T08:35:46.669Z,17.85
2022-11-28T08:39:03.466Z,9.20
2022-11-28T08:42:10.915Z,8.95
2022-11-28T08:45:12.758Z,7.72
2022-11-28T08:48:14.441Z,9.65
2022-11-28T08:51:18.870Z,9.50
2022-11-28T08:54:21.072Z,11.45
2022-11-28T08:57:22.726Z,10.52
2022-11-28T09:00:24.409Z,9.20
2022-11-28T09:03:26.326Z,10.80
2022-11-28T09:06:28.086Z,9.18
2022-11-28T09:09:32.768Z,10.18
2022-11-28T09:12:35.040Z,9.45
2022-11-28T09:15:43.354Z,9.45
2022-11-28T09:18:45.229Z,9.77
2022-11-28T09:21:46.950Z,12.18
2022-11-28T09:24:48.531Z,8.98
2022-11-28T09:27:50.321Z,10.20
2022-11-28T09:31:00.051Z,9.82
2022-11-28T09:34:03.585Z,9.93
2022-11-28T09:40:15.175Z,8.80
2022-11-28T09:43:20.638Z,9.00
2022-11-28T09:46:31.756Z,9.95
2022-11-28T09:49:48.117Z,10.05
2022-11-28T09:53:05.733Z,8.65
2022-11-28T09:56:19.774Z,9.70
2022-11-28T09:59:29.905Z,8.18
2022-11-28T10:02:43.864Z,8.38
2022-11-28T10:05:45.440Z,9.77
2022-11-28T10:09:24.707Z,13.25
2022-11-28T10:12:38.420Z,8.27
2022-11-28T10:19:20.311Z,11.18
2022-11-28T10:22:37.224Z,8.30
2022-11-28T10:26:02.555Z,13.30
2022-11-28T10:29:39.726Z,8.15
2022-11-28T10:32:45.223Z,7.88
2022-11-28T10:35:58.767Z,7.93
2022-11-28T10:39:11.172Z,7.13
2022-11-28T10:42:22.378Z,7.27
2022-11-28T10:45:36.167Z,6.68
2022-11-28T10:48:56.015Z,6.88
2022-11-28T10:52:12.436Z,7.35
2022-11-28T10:55:39.010Z,7.00
2022-11-28T10:59:05.087Z,6.45
2022-11-28T11:02:22.306Z,7.18
2022-11-28T11:05:29.623Z,7.13
2022-11-28T11:08:36.762Z,6.93
2022-11-28T11:11:47.575Z,7.32
2022-11-28T11:14:49.215Z,7.07
2022-11-28T11:17:51.851Z,7.57
2022-11-28T11:21:07.455Z,7.57
2022-11-28T11:24:27.202Z,8.43
2022-11-28T11:27:28.819Z,7.85
2022-11-28T11:30:40.126Z,8.82
2022-11-28T11:33:42.805Z,6.78
2022-11-28T11:36:45.151Z,8.17
2022-11-28T11:39:51.415Z,7.97
2022-11-28T11:42:56.553Z,7.95
2022-11-28T11:46:12.688Z,7.70
2022-11-28T11:49:38.389Z,11.27
2022-11-28T11:52:40.080Z,9.57
2022-11-28T11:55:55.901Z,14.60
2022-11-28T11:59:01.885Z,10.25
2022-11-28T12:02:19.192Z,23.23
2022-11-28T12:06:06.545Z,47.65
2022-11-28T12:09:46.639Z,8.95
2022-11-28T12:12:48.708Z,39.45
2022-11-28T12:16:34.779Z,12.73
2022-11-28T12:19:52.181Z,13.15
2022-11-28T12:23:18.388Z,9.10
2022-11-28T12:26:42.468Z,26.80
2022-11-28T12:30:01.558Z,14.90
2022-11-28T12:33:39.265Z,8.52
2022-11-28T12:37:33.075Z,7.78
2022-11-28T12:41:14.583Z,8.38
2022-11-28T12:44:22.304Z,11.45
2022-11-28T12:47:54.047Z,9.77
2022-11-28T12:51:08.014Z,7.72
2022-11-28T12:54:36.005Z,10.57
2022-11-28T12:57:49.505Z,11.65
2022-11-28T13:01:15.265Z,11.98
2022-11-28T13:04:31.419Z,12.57
2022-11-28T13:08:02.750Z,11.88
2022-11-28T13:11:31.879Z,26.42
2022-11-28T13:14:36.585Z,34.13
2022-11-28T13:17:58.279Z,17.83
2022-11-28T13:21:25.177Z,12.43
2022-11-28T13:24:31.898Z,12.30
2022-11-28T13:27:49.096Z,9.98
2022-11-28T13:30:56.207Z,9.93
2022-11-28T13:33:58.866Z,17.67
2022-11-28T13:40:41.206Z,12.52
2022-11-28T13:44:03.906Z,14.18
2022-11-28T13:47:27.940Z,13.80
2022-11-28T13:50:39.302Z,13.15
2022-11-28T13:53:42.561Z,10.43
2022-11-28T13:57:13.596Z,13.32
2022-11-28T14:00:18.466Z,9.35
2022-11-28T14:03:21.182Z,7.20
2022-11-28T14:06:26.203Z,8.30
2022-11-28T14:09:47.685Z,9.60
2022-11-28T14:13:28.150Z,14.38
2022-11-28T14:16:52.169Z,11.90
2022-11-28T14:20:04.652Z,19.80
2022-11-28T14:23:15.639Z,19.73
2022-11-28T14:26:39.028Z,23.05
2022-11-28T14:29:48.244Z,22.92
2022-11-28T14:32:57.232Z,28.35
2022-11-28T14:36:06.113Z,28.25
2022-11-28T14:39:08.080Z,47.15
2022-11-28T14:42:10.108Z,21.40
2022-11-28T14:45:43.136Z,22.20
2022-11-28T14:49:00.442Z,14.98
2022-11-28T14:52:37.803Z,11.85
2022-11-28T14:55:39.977Z,10.32
2022-11-28T14:58:49.260Z,9.45
2022-11-28T15:02:06.080Z,11.48
2022-11-28T15:05:22.219Z,10.85
2022-11-28T15:08:45.553Z,9.80
2022-11-28T15:11:58.721Z,10.20
2022-11-28T15:15:01.964Z,10.80
2022-11-28T15:18:04.889Z,12.95
2022-11-28T15:21:13.661Z,9.75
2022-11-28T15:24:23.974Z,10.68
2022-11-28T15:27:27.855Z,10.20
2022-11-28T15:33:32.527Z,10.38
2022-11-28T15:36:34.396Z,9.82
2022-11-28T15:39:41.093Z,11.15
2022-11-28T15:42:45.072Z,9.77
2022-11-28T15:45:52.749Z,10.85
2022-11-28T15:48:54.607Z,10.98
2022-11-28T15:52:01.788Z,10.80
2022-11-28T15:55:13.749Z,10.50
2022-11-28T15:58:25.418Z,11.68
2022-11-28T16:01:28.241Z,30.23
2022-11-28T16:04:31.682Z,24.60
2022-11-28T16:07:37.837Z,19.15
2022-11-28T16:10:44.337Z,15.32
2022-11-28T16:13:47.304Z,12.30
2022-11-28T16:16:49.296Z,11.20
2022-11-28T16:19:53.740Z,12.02
2022-11-28T16:23:00.152Z,13.13
2022-11-28T16:26:25.715Z,14.25
2022-11-28T16:29:36.656Z,13.35
2022-11-28T16:32:40.455Z,15.18
2022-11-28T16:35:42.388Z,18.00
2022-11-28T16:38:45.214Z,13.05
2022-11-28T16:41:56.676Z,12.35
2022-11-28T16:45:15.471Z,13.57
2022-11-28T16:48:19.400Z,12.13
2022-11-28T16:51:20.905Z,13.98
2022-11-28T16:54:33.696Z,15.70
2022-11-28T16:57:46.685Z,13.45
2022-11-28T17:01:00.995Z,13.57
2022-11-28T17:04:03.920Z,18.27
2022-11-28T17:07:10.093Z,66.30
2022-11-28T17:10:14.980Z,51.03
2022-11-28T17:13:17.448Z,19.92
2022-11-28T17:16:24.548Z,29.47
2022-11-28T17:19:28.874Z,29.33
2022-11-28T17:22:43.135Z,17.85
2022-11-28T17:25:44.849Z,17.98
2022-11-28T17:28:47.108Z,36.20
2022-11-28T17:31:49.684Z,24.52
2022-11-28T17:34:53.862Z,17.70
2022-11-28T17:37:55.534Z,17.27
2022-11-28T17:40:57.233Z,19.48
2022-11-28T17:43:58.781Z,16.58
2022-11-28T17:47:01.841Z,17.42
2022-11-28T17:50:03.786Z,16.48
2022-11-28T17:53:07.815Z,16.38
2022-11-28T17:56:13.087Z,20.02
2022-11-28T17:59:16.566Z,18.17
2022-11-28T18:05:19.924Z,13.52
2022-11-28T18:08:22.585Z,15.18
2022-11-28T18:11:24.760Z,16.10
2022-11-28T18:14:26.350Z,21.38
2022-11-28T18:17:28.199Z,19.10
2022-11-28T18:20:31.772Z,18.95
2022-11-28T18:23:33.404Z,21.45
2022-11-28T18:26:36.016Z,21.80
2022-11-28T18:29:37.759Z,24.90
2022-11-28T18:32:39.607Z,18.10
2022-11-28T18:35:41.780Z,22.20
2022-11-28T18:38:46.626Z,17.40
2022-11-28T18:41:48.330Z,17.70
2022-11-28T18:44:50.367Z,36.33
2022-11-28T18:47:55.886Z,44.58
2022-11-28T18:51:00.429Z,29.48
2022-11-28T18:54:05.293Z,22.75
2022-11-28T18:57:09.533Z,15.68
2022-11-28T19:00:13.740Z,13.82
2022-11-28T19:03:18.579Z,12.80
2022-11-28T19:06:22.020Z,15.30
2022-11-28T19:09:23.794Z,15.85
2022-11-28T19:15:29.504Z,14.48
2022-11-28T19:18:31.160Z,21.90
2022-11-28T19:21:35.375Z,16.63
2022-11-28T19:24:38.307Z,18.65
2022-11-28T19:27:40.156Z,18.30
2022-11-28T19:30:42.034Z,16.80
2022-11-28T19:33:44.084Z,16.27
2022-11-28T19:36:48.443Z,13.70
2022-11-28T19:39:50.177Z,15.30
2022-11-28T19:42:55.694Z,17.20
2022-11-28T19:45:58.141Z,16.35
2022-11-28T19:49:00.032Z,19.70
2022-11-28T19:52:02.950Z,18.57
2022-11-28T19:55:05.206Z,17.65
2022-11-28T19:58:07.258Z,17.10
2022-11-28T20:01:15.277Z,15.98
2022-11-28T20:04:17.361Z,16.25
2022-11-28T20:07:19.540Z,14.93
2022-11-28T20:10:21.431Z,15.68
2022-11-28T20:13:23.727Z,14.38
2022-11-28T20:16:26.344Z,15.45
2022-11-28T20:19:28.189Z,15.00
2022-11-28T20:22:30.843Z,14.98
2022-11-28T20:25:33.277Z,15.75
2022-11-28T20:28:38.586Z,14.93
2022-11-28T20:31:45.250Z,17.17
2022-11-28T20:34:47.067Z,16.65
2022-11-28T20:37:48.987Z,15.77
2022-11-28T20:40:50.772Z,12.65
2022-11-28T20:43:53.136Z,14.18
2022-11-28T20:46:54.926Z,13.17
2022-11-28T20:49:56.832Z,11.73
2022-11-28T20:52:58.551Z,11.82
2022-11-28T20:56:06.341Z,12.70
2022-11-28T20:59:08.363Z,12.20
2022-11-28T21:02:11.366Z,12.52
2022-11-28T21:05:13.058Z,14.18
2022-11-28T21:08:14.916Z,13.57
2022-11-28T21:11:43.369Z,13.65
2022-11-28T21:14:40.883Z,13.43
2022-11-28T21:17:42.589Z,14.35
2022-11-28T21:20:45.830Z,13.57
2022-11-28T21:23:47.951Z,14.82
2022-11-28T21:26:53.542Z,14.95
2022-11-28T21:29:56.368Z,13.05
2022-11-28T21:32:58.364Z,14.13
2022-11-28T21:36:02.685Z,14.30
2022-11-28T21:39:04.509Z,14.13
2022-11-28T21:42:06.548Z,13.15
2022-11-28T21:45:09.080Z,14.68
2022-11-28T21:48:10.789Z,13.05
2022-11-28T21:51:18.342Z,13.07
2022-11-28T21:54:20.546Z,13.55
2022-11-28T21:57:22.571Z,14.02
2022-11-28T22:00:46.061Z,13.57
2022-11-28T22:03:46.150Z,12.95
2022-11-28T22:06:47.859Z,12.00
2022-11-28T22:09:49.973Z,11.90
2022-11-28T22:12:53.518Z,17.88
2022-11-28T22:15:55.325Z,13.45
2022-11-28T22:18:59.581Z,14.60
2022-11-28T22:22:01.316Z,12.27
2022-11-28T22:25:03.426Z,14.50
2022-11-28T22:28:05.619Z,13.13
2022-11-28T22:31:09.197Z,11.98
2022-11-28T22:34:11.156Z,12.68
2022-11-28T22:37:12.953Z,12.23
2022-11-28T22:40:15.256Z,11.43
2022-11-28T22:43:17.045Z,11.75
2022-11-28T22:46:21.189Z,10.95
2022-11-28T22:49:23.407Z,12.38
2022-11-28T22:52:25.279Z,12.73
2022-11-28T22:55:27.147Z,12.23
2022-11-28T22:58:28.766Z,12.52
2022-11-28T23:01:32.027Z,13.00
2022-11-28T23:04:35.443Z,13.55
2022-11-28T23:07:38.074Z,12.80
2022-11-28T23:10:40.947Z,11.55
2022-11-28T23:13:44.036Z,12.77
2022-11-28T23:16:48.053Z,12.65
2022-11-28T23:19:50.215Z,12.50
2022-11-28T23:22:51.907Z,12.68
2022-11-28T23:25:53.627Z,11.90
2022-11-28T23:28:56.192Z,12.10
2022-11-28T23:31:57.782Z,12.10
2022-11-28T23:35:01.199Z,11.20
2022-11-28T23:38:02.902Z,12.52
2022-11-28T23:41:04.764Z,12.32
2022-11-28T23:44:06.510Z,12.77
2022-11-28T23:47:08.468Z,12.90
2022-11-28T23:50:10.416Z,12.43
2022-11-28T23:53:12.149Z,11.60
2022-11-28T23:56:16.663Z,13.75
2022-11-28T23:59:18.317Z,11.50
